sensor_id;sensor_type;location;lat;lon;timestamp;P1;durP1;ratioP1;P2;durP2;ratioP2
64282;SDS011;50497;50.720;-2.084;2022-07-23T00:00:12;12.65;;;6.60;;
64282;SDS011;50497;50.720;-2.084;2022-07-23T00:02:37;12.82;;;7.18;;
64282;SDS011;50497;50.720;-2.084;2022-07-23T00:05:03;12.60;;;6.72;;
64282;SDS011;50497;50.720;-2.084;2022-07-23T00:07:33;13.93;;;7.45;;
64282;SDS011;50497;50.720;-2.084;2022-07-23T00:09:59;12.02;;;6.60;;
64282;SDS011;50497;50.720;-2.084;2022-07-23T00:12:25;11.43;;;6.55;;
64282;SDS011;50497;50.720;-2.084;2022-07-23T00:14:51;10.95;;;6.78;;
64282;SDS011;50497;50.720;-2.084;2022-07-23T00:17:17;11.60;;;6.78;;
64282;SDS011;50497;50.720;-2.084;2022-07-23T00:19:51;13.77;;;7.30;;
64282;SDS011;50497;50.720;-2.084;2022-07-23T00:22:19;11.80;;;7.28;;
64282;SDS011;50497;50.720;-2.084;2022-07-23T00:24:48;12.10;;;7.55;;
64282;SDS011;50497;50.720;-2.084;2022-07-23T00:27:18;14.32;;;7.07;;
64282;SDS011;50497;50.720;-2.084;2022-07-23T00:29:44;12.52;;;7.25;;
64282;SDS011;50497;50.720;-2.084;2022-07-23T00:32:15;12.70;;;7.25;;
64282;SDS011;50497;50.720;-2.084;2022-07-23T00:34:41;15.43;;;7.82;;
64282;SDS011;50497;50.720;-2.084;2022-07-23T00:37:07;16.80;;;7.35;;
64282;SDS011;50497;50.720;-2.084;2022-07-23T00:39:33;12.98;;;6.80;;
64282;SDS011;50497;50.720;-2.084;2022-07-23T00:42:02;14.55;;;6.93;;
64282;SDS011;50497;50.720;-2.084;2022-07-23T00:44:38;14.95;;;7.50;;
64282;SDS011;50497;50.720;-2.084;2022-07-23T00:47:04;13.32;;;7.32;;
64282;SDS011;50497;50.720;-2.084;2022-07-23T00:49:33;12.30;;;7.32;;
64282;SDS011;50497;50.720;-2.084;2022-07-23T00:52:03;13.23;;;6.78;;
64282;SDS011;50497;50.720;-2.084;2022-07-23T00:54:29;15.02;;;6.78;;
64282;SDS011;50497;50.720;-2.084;2022-07-23T00:56:56;14.32;;;7.03;;
64282;SDS011;50497;50.720;-2.084;2022-07-23T00:59:22;13.60;;;6.90;;
64282;SDS011;50497;50.720;-2.084;2022-07-23T01:01:47;15.40;;;7.32;;
64282;SDS011;50497;50.720;-2.084;2022-07-23T01:04:17;13.43;;;6.68;;
64282;SDS011;50497;50.720;-2.084;2022-07-23T01:06:43;13.15;;;7.25;;
64282;SDS011;50497;50.720;-2.084;2022-07-23T01:09:10;12.23;;;6.30;;
64282;SDS011;50497;50.720;-2.084;2022-07-23T01:11:36;13.00;;;6.80;;
64282;SDS011;50497;50.720;-2.084;2022-07-23T01:14:14;13.43;;;7.10;;
64282;SDS011;50497;50.720;-2.084;2022-07-23T01:16:42;12.80;;;6.80;;
64282;SDS011;50497;50.720;-2.084;2022-07-23T01:19:08;12.20;;;6.15;;
64282;SDS011;50497;50.720;-2.084;2022-07-23T01:24:18;12.02;;;5.68;;
64282;SDS011;50497;50.720;-2.084;2022-07-23T01:26:47;14.25;;;6.07;;
64282;SDS011;50497;50.720;-2.084;2022-07-23T01:29:15;12.30;;;5.90;;
64282;SDS011;50497;50.720;-2.084;2022-07-23T01:31:41;13.15;;;6.25;;
64282;SDS011;50497;50.720;-2.084;2022-07-23T01:34:08;10.63;;;5.47;;
64282;SDS011;50497;50.720;-2.084;2022-07-23T01:36:38;11.50;;;6.05;;
64282;SDS011;50497;50.720;-2.084;2022-07-23T01:39:08;10.85;;;5.97;;
64282;SDS011;50497;50.720;-2.084;2022-07-23T01:41:33;12.30;;;6.22;;
64282;SDS011;50497;50.720;-2.084;2022-07-23T01:44:03;11.65;;;6.20;;
64282;SDS011;50497;50.720;-2.084;2022-07-23T01:46:32;11.45;;;6.47;;
64282;SDS011;50497;50.720;-2.084;2022-07-23T01:48:58;13.20;;;6.45;;
64282;SDS011;50497;50.720;-2.084;2022-07-23T01:51:27;15.00;;;6.32;;
64282;SDS011;50497;50.720;-2.084;2022-07-23T01:53:52;12.27;;;6.18;;
64282;SDS011;50497;50.720;-2.084;2022-07-23T01:56:22;12.10;;;6.40;;
64282;SDS011;50497;50.720;-2.084;2022-07-23T01:58:52;12.80;;;6.40;;
64282;SDS011;50497;50.720;-2.084;2022-07-23T02:01:21;13.60;;;6.22;;
64282;SDS011;50497;50.720;-2.084;2022-07-23T02:03:50;13.35;;;5.55;;
64282;SDS011;50497;50.720;-2.084;2022-07-23T02:06:16;10.35;;;5.57;;
64282;SDS011;50497;50.720;-2.084;2022-07-23T02:08:46;12.18;;;5.80;;
64282;SDS011;50497;50.720;-2.084;2022-07-23T02:11:15;12.65;;;5.50;;
64282;SDS011;50497;50.720;-2.084;2022-07-23T02:13:42;13.55;;;5.43;;
64282;SDS011;50497;50.720;-2.084;2022-07-23T02:16:08;11.05;;;5.90;;
64282;SDS011;50497;50.720;-2.084;2022-07-23T02:18:37;13.82;;;6.70;;
64282;SDS011;50497;50.720;-2.084;2022-07-23T02:21:03;13.95;;;7.10;;
64282;SDS011;50497;50.720;-2.084;2022-07-23T02:23:28;14.02;;;6.40;;
64282;SDS011;50497;50.720;-2.084;2022-07-23T02:25:58;13.43;;;6.25;;
64282;SDS011;50497;50.720;-2.084;2022-07-23T02:28:28;11.68;;;6.47;;
64282;SDS011;50497;50.720;-2.084;2022-07-23T02:30:57;13.52;;;6.68;;
64282;SDS011;50497;50.720;-2.084;2022-07-23T02:33:36;13.95;;;6.30;;
64282;SDS011;50497;50.720;-2.084;2022-07-23T02:36:05;11.13;;;5.82;;
64282;SDS011;50497;50.720;-2.084;2022-07-23T02:38:34;10.55;;;5.78;;
64282;SDS011;50497;50.720;-2.084;2022-07-23T02:41:02;11.43;;;5.43;;
64282;SDS011;50497;50.720;-2.084;2022-07-23T02:43:28;10.60;;;5.47;;
64282;SDS011;50497;50.720;-2.084;2022-07-23T02:45:54;9.30;;;5.43;;
64282;SDS011;50497;50.720;-2.084;2022-07-23T02:48:24;11.52;;;5.55;;
64282;SDS011;50497;50.720;-2.084;2022-07-23T02:50:50;9.60;;;5.60;;
64282;SDS011;50497;50.720;-2.084;2022-07-23T02:53:16;12.10;;;5.63;;
64282;SDS011;50497;50.720;-2.084;2022-07-23T02:55:42;10.85;;;5.40;;
64282;SDS011;50497;50.720;-2.084;2022-07-23T02:58:12;9.23;;;5.30;;
64282;SDS011;50497;50.720;-2.084;2022-07-23T03:00:37;8.52;;;5.00;;
64282;SDS011;50497;50.720;-2.084;2022-07-23T03:03:04;9.82;;;5.28;;
64282;SDS011;50497;50.720;-2.084;2022-07-23T03:05:31;9.77;;;5.32;;
64282;SDS011;50497;50.720;-2.084;2022-07-23T03:08:01;9.60;;;5.25;;
64282;SDS011;50497;50.720;-2.084;2022-07-23T03:10:28;10.10;;;5.43;;
64282;SDS011;50497;50.720;-2.084;2022-07-23T03:12:59;10.70;;;5.15;;
64282;SDS011;50497;50.720;-2.084;2022-07-23T03:15:26;10.40;;;5.35;;
64282;SDS011;50497;50.720;-2.084;2022-07-23T03:17:55;11.00;;;5.50;;
64282;SDS011;50497;50.720;-2.084;2022-07-23T03:20:27;10.65;;;5.32;;
64282;SDS011;50497;50.720;-2.084;2022-07-23T03:22:57;10.65;;;5.15;;
64282;SDS011;50497;50.720;-2.084;2022-07-23T03:25:26;8.93;;;5.07;;
64282;SDS011;50497;50.720;-2.084;2022-07-23T03:27:52;9.77;;;5.30;;
64282;SDS011;50497;50.720;-2.084;2022-07-23T03:30:17;10.30;;;5.35;;
64282;SDS011;50497;50.720;-2.084;2022-07-23T03:32:44;9.45;;;5.22;;
64282;SDS011;50497;50.720;-2.084;2022-07-23T03:35:13;9.10;;;4.82;;
64282;SDS011;50497;50.720;-2.084;2022-07-23T03:37:42;8.77;;;4.95;;
64282;SDS011;50497;50.720;-2.084;2022-07-23T03:40:17;10.50;;;5.07;;
64282;SDS011;50497;50.720;-2.084;2022-07-23T03:42:43;10.27;;;5.20;;
64282;SDS011;50497;50.720;-2.084;2022-07-23T03:45:14;9.70;;;5.00;;
64282;SDS011;50497;50.720;-2.084;2022-07-23T03:47:46;10.77;;;4.90;;
64282;SDS011;50497;50.720;-2.084;2022-07-23T03:50:13;10.27;;;5.35;;
64282;SDS011;50497;50.720;-2.084;2022-07-23T03:52:38;9.32;;;5.40;;
64282;SDS011;50497;50.720;-2.084;2022-07-23T03:55:10;9.30;;;5.60;;
64282;SDS011;50497;50.720;-2.084;2022-07-23T03:57:36;9.30;;;5.53;;
64282;SDS011;50497;50.720;-2.084;2022-07-23T04:00:10;8.90;;;5.07;;
64282;SDS011;50497;50.720;-2.084;2022-07-23T04:02:39;11.40;;;5.72;;
64282;SDS011;50497;50.720;-2.084;2022-07-23T04:05:13;10.60;;;5.43;;
64282;SDS011;50497;50.720;-2.084;2022-07-23T04:07:39;9.77;;;5.38;;
64282;SDS011;50497;50.720;-2.084;2022-07-23T04:10:08;9.70;;;4.80;;
64282;SDS011;50497;50.720;-2.084;2022-07-23T04:12:34;8.82;;;5.15;;
64282;SDS011;50497;50.720;-2.084;2022-07-23T04:15:01;10.18;;;5.43;;
64282;SDS011;50497;50.720;-2.084;2022-07-23T04:17:29;10.07;;;5.20;;
64282;SDS011;50497;50.720;-2.084;2022-07-23T04:19:58;11.93;;;5.38;;
64282;SDS011;50497;50.720;-2.084;2022-07-23T04:22:24;11.13;;;5.20;;
64282;SDS011;50497;50.720;-2.084;2022-07-23T04:24:49;10.07;;;5.10;;
64282;SDS011;50497;50.720;-2.084;2022-07-23T04:27:19;11.00;;;5.57;;
64282;SDS011;50497;50.720;-2.084;2022-07-23T04:29:48;9.65;;;5.40;;
64282;SDS011;50497;50.720;-2.084;2022-07-23T04:32:13;11.82;;;5.20;;
64282;SDS011;50497;50.720;-2.084;2022-07-23T04:34:42;10.57;;;5.47;;
64282;SDS011;50497;50.720;-2.084;2022-07-23T04:37:08;10.20;;;5.20;;
64282;SDS011;50497;50.720;-2.084;2022-07-23T04:39:33;10.13;;;5.53;;
64282;SDS011;50497;50.720;-2.084;2022-07-23T04:42:02;13.27;;;5.78;;
64282;SDS011;50497;50.720;-2.084;2022-07-23T04:44:30;13.15;;;5.72;;
64282;SDS011;50497;50.720;-2.084;2022-07-23T04:46:56;10.10;;;5.50;;
64282;SDS011;50497;50.720;-2.084;2022-07-23T04:49:23;8.95;;;5.30;;
64282;SDS011;50497;50.720;-2.084;2022-07-23T04:51:56;9.20;;;5.30;;
64282;SDS011;50497;50.720;-2.084;2022-07-23T04:54:24;10.27;;;5.18;;
64282;SDS011;50497;50.720;-2.084;2022-07-23T04:56:51;9.57;;;5.10;;
64282;SDS011;50497;50.720;-2.084;2022-07-23T04:59:17;10.02;;;4.97;;
64282;SDS011;50497;50.720;-2.084;2022-07-23T05:01:49;8.80;;;5.05;;
64282;SDS011;50497;50.720;-2.084;2022-07-23T05:04:14;11.07;;;5.05;;
64282;SDS011;50497;50.720;-2.084;2022-07-23T05:06:44;10.32;;;5.32;;
64282;SDS011;50497;50.720;-2.084;2022-07-23T05:09:09;10.50;;;5.10;;
64282;SDS011;50497;50.720;-2.084;2022-07-23T05:11:35;9.10;;;4.88;;
64282;SDS011;50497;50.720;-2.084;2022-07-23T05:14:04;10.73;;;5.32;;
64282;SDS011;50497;50.720;-2.084;2022-07-23T05:16:29;8.68;;;4.88;;
64282;SDS011;50497;50.720;-2.084;2022-07-23T05:19:02;9.43;;;4.90;;
64282;SDS011;50497;50.720;-2.084;2022-07-23T05:21:27;9.85;;;4.88;;
64282;SDS011;50497;50.720;-2.084;2022-07-23T05:23:56;9.60;;;4.38;;
64282;SDS011;50497;50.720;-2.084;2022-07-23T05:26:22;9.82;;;4.38;;
64282;SDS011;50497;50.720;-2.084;2022-07-23T05:28:49;8.68;;;4.53;;
64282;SDS011;50497;50.720;-2.084;2022-07-23T05:31:15;9.40;;;4.75;;
64282;SDS011;50497;50.720;-2.084;2022-07-23T05:33:47;8.25;;;4.22;;
64282;SDS011;50497;50.720;-2.084;2022-07-23T05:36:15;9.60;;;4.50;;
64282;SDS011;50497;50.720;-2.084;2022-07-23T05:38:40;9.85;;;4.47;;
64282;SDS011;50497;50.720;-2.084;2022-07-23T05:41:09;8.90;;;4.40;;
64282;SDS011;50497;50.720;-2.084;2022-07-23T05:43:37;10.18;;;4.65;;
64282;SDS011;50497;50.720;-2.084;2022-07-23T05:46:09;9.57;;;4.60;;
64282;SDS011;50497;50.720;-2.084;2022-07-23T05:48:35;9.98;;;4.15;;
64282;SDS011;50497;50.720;-2.084;2022-07-23T05:51:00;9.05;;;4.50;;
64282;SDS011;50497;50.720;-2.084;2022-07-23T05:53:32;9.40;;;4.53;;
64282;SDS011;50497;50.720;-2.084;2022-07-23T05:55:59;10.38;;;4.75;;
64282;SDS011;50497;50.720;-2.084;2022-07-23T05:58:29;10.25;;;4.65;;
64282;SDS011;50497;50.720;-2.084;2022-07-23T06:00:54;9.30;;;4.40;;
64282;SDS011;50497;50.720;-2.084;2022-07-23T06:03:20;10.13;;;4.47;;
64282;SDS011;50497;50.720;-2.084;2022-07-23T06:05:45;9.65;;;4.47;;
64282;SDS011;50497;50.720;-2.084;2022-07-23T06:08:15;8.43;;;4.22;;
64282;SDS011;50497;50.720;-2.084;2022-07-23T06:10:41;7.75;;;4.20;;
64282;SDS011;50497;50.720;-2.084;2022-07-23T06:13:06;8.05;;;4.35;;
64282;SDS011;50497;50.720;-2.084;2022-07-23T06:15:32;10.18;;;4.50;;
64282;SDS011;50497;50.720;-2.084;2022-07-23T06:17:58;6.90;;;3.78;;
64282;SDS011;50497;50.720;-2.084;2022-07-23T06:20:23;8.43;;;4.18;;
64282;SDS011;50497;50.720;-2.084;2022-07-23T06:22:49;8.98;;;4.00;;
64282;SDS011;50497;50.720;-2.084;2022-07-23T06:25:14;8.75;;;4.10;;
64282;SDS011;50497;50.720;-2.084;2022-07-23T06:27:41;8.57;;;3.65;;
64282;SDS011;50497;50.720;-2.084;2022-07-23T06:30:07;7.20;;;3.63;;
64282;SDS011;50497;50.720;-2.084;2022-07-23T06:34:59;8.45;;;3.90;;
64282;SDS011;50497;50.720;-2.084;2022-07-23T06:37:25;6.78;;;3.63;;
64282;SDS011;50497;50.720;-2.084;2022-07-23T06:39:50;6.05;;;3.60;;
64282;SDS011;50497;50.720;-2.084;2022-07-23T06:42:16;8.70;;;3.70;;
64282;SDS011;50497;50.720;-2.084;2022-07-23T06:44:42;7.18;;;3.35;;
64282;SDS011;50497;50.720;-2.084;2022-07-23T06:47:07;5.80;;;3.20;;
64282;SDS011;50497;50.720;-2.084;2022-07-23T06:49:36;6.63;;;3.50;;
64282;SDS011;50497;50.720;-2.084;2022-07-23T06:52:01;6.97;;;3.03;;
64282;SDS011;50497;50.720;-2.084;2022-07-23T06:54:27;7.65;;;3.50;;
64282;SDS011;50497;50.720;-2.084;2022-07-23T06:56:52;6.80;;;3.10;;
64282;SDS011;50497;50.720;-2.084;2022-07-23T06:59:21;6.20;;;3.10;;
64282;SDS011;50497;50.720;-2.084;2022-07-23T07:04:15;5.50;;;2.80;;
64282;SDS011;50497;50.720;-2.084;2022-07-23T07:06:42;5.35;;;2.90;;
64282;SDS011;50497;50.720;-2.084;2022-07-23T07:11:33;6.85;;;2.88;;
64282;SDS011;50497;50.720;-2.084;2022-07-23T07:13:58;5.05;;;2.70;;
64282;SDS011;50497;50.720;-2.084;2022-07-23T07:18:49;5.43;;;2.60;;
64282;SDS011;50497;50.720;-2.084;2022-07-23T07:23:46;6.93;;;2.97;;
64282;SDS011;50497;50.720;-2.084;2022-07-23T07:26:15;6.88;;;2.97;;
64282;SDS011;50497;50.720;-2.084;2022-07-23T07:28:40;5.22;;;2.40;;
64282;SDS011;50497;50.720;-2.084;2022-07-23T07:31:06;4.70;;;2.35;;
64282;SDS011;50497;50.720;-2.084;2022-07-23T07:33:39;6.25;;;2.83;;
64282;SDS011;50497;50.720;-2.084;2022-07-23T07:36:07;4.80;;;2.42;;
64282;SDS011;50497;50.720;-2.084;2022-07-23T07:38:33;4.45;;;2.60;;
64282;SDS011;50497;50.720;-2.084;2022-07-23T07:43:23;4.90;;;2.38;;
64282;SDS011;50497;50.720;-2.084;2022-07-23T07:45:49;5.40;;;2.50;;
64282;SDS011;50497;50.720;-2.084;2022-07-23T07:48:15;5.18;;;2.30;;
64282;SDS011;50497;50.720;-2.084;2022-07-23T07:50:40;6.72;;;2.42;;
64282;SDS011;50497;50.720;-2.084;2022-07-23T07:53:06;4.97;;;2.40;;
64282;SDS011;50497;50.720;-2.084;2022-07-23T07:55:38;4.93;;;2.22;;
64282;SDS011;50497;50.720;-2.084;2022-07-23T07:58:04;4.78;;;2.20;;
64282;SDS011;50497;50.720;-2.084;2022-07-23T08:00:33;4.18;;;1.92;;
64282;SDS011;50497;50.720;-2.084;2022-07-23T08:03:03;4.55;;;2.10;;
64282;SDS011;50497;50.720;-2.084;2022-07-23T08:05:30;4.40;;;2.20;;
64282;SDS011;50497;50.720;-2.084;2022-07-23T08:07:59;4.22;;;1.70;;
64282;SDS011;50497;50.720;-2.084;2022-07-23T08:10:26;6.47;;;2.38;;
64282;SDS011;50497;50.720;-2.084;2022-07-23T08:12:55;3.67;;;1.90;;
64282;SDS011;50497;50.720;-2.084;2022-07-23T08:15:22;4.32;;;1.95;;
64282;SDS011;50497;50.720;-2.084;2022-07-23T08:17:49;4.38;;;2.17;;
64282;SDS011;50497;50.720;-2.084;2022-07-23T08:20:19;5.70;;;2.30;;
64282;SDS011;50497;50.720;-2.084;2022-07-23T08:22:53;6.22;;;2.30;;
64282;SDS011;50497;50.720;-2.084;2022-07-23T08:25:25;4.75;;;2.15;;
64282;SDS011;50497;50.720;-2.084;2022-07-23T08:27:57;4.20;;;2.20;;
64282;SDS011;50497;50.720;-2.084;2022-07-23T08:30:24;5.97;;;2.17;;
64282;SDS011;50497;50.720;-2.084;2022-07-23T08:35:32;5.50;;;1.85;;
64282;SDS011;50497;50.720;-2.084;2022-07-23T08:38:03;4.35;;;2.15;;
64282;SDS011;50497;50.720;-2.084;2022-07-23T08:40:42;4.55;;;1.88;;
64282;SDS011;50497;50.720;-2.084;2022-07-23T08:43:16;6.25;;;2.33;;
64282;SDS011;50497;50.720;-2.084;2022-07-23T08:45:50;3.28;;;1.70;;
64282;SDS011;50497;50.720;-2.084;2022-07-23T08:48:21;6.05;;;1.90;;
64282;SDS011;50497;50.720;-2.084;2022-07-23T08:50:49;5.05;;;1.90;;
64282;SDS011;50497;50.720;-2.084;2022-07-23T08:53:23;4.82;;;2.25;;
64282;SDS011;50497;50.720;-2.084;2022-07-23T08:55:52;4.40;;;1.90;;
64282;SDS011;50497;50.720;-2.084;2022-07-23T08:58:20;4.85;;;1.90;;
64282;SDS011;50497;50.720;-2.084;2022-07-23T09:00:46;4.43;;;2.20;;
64282;SDS011;50497;50.720;-2.084;2022-07-23T09:03:20;4.00;;;2.00;;
64282;SDS011;50497;50.720;-2.084;2022-07-23T09:05:49;4.07;;;1.98;;
64282;SDS011;50497;50.720;-2.084;2022-07-23T09:08:22;6.78;;;2.28;;
64282;SDS011;50497;50.720;-2.084;2022-07-23T09:10:55;4.63;;;2.10;;
64282;SDS011;50497;50.720;-2.084;2022-07-23T09:15:51;4.82;;;2.30;;
64282;SDS011;50497;50.720;-2.084;2022-07-23T09:18:18;3.60;;;1.85;;
64282;SDS011;50497;50.720;-2.084;2022-07-23T09:21:04;4.18;;;2.03;;
64282;SDS011;50497;50.720;-2.084;2022-07-23T09:23:42;4.75;;;2.03;;
64282;SDS011;50497;50.720;-2.084;2022-07-23T09:26:40;4.15;;;1.88;;
64282;SDS011;50497;50.720;-2.084;2022-07-23T09:29:08;5.03;;;2.08;;
64282;SDS011;50497;50.720;-2.084;2022-07-23T09:34:22;3.53;;;1.75;;
64282;SDS011;50497;50.720;-2.084;2022-07-23T09:36:53;4.13;;;2.00;;
64282;SDS011;50497;50.720;-2.084;2022-07-23T09:39:33;4.80;;;2.45;;
64282;SDS011;50497;50.720;-2.084;2022-07-23T09:42:20;5.43;;;2.10;;
64282;SDS011;50497;50.720;-2.084;2022-07-23T09:44:50;4.93;;;1.88;;
64282;SDS011;50497;50.720;-2.084;2022-07-23T09:47:21;4.65;;;2.00;;
64282;SDS011;50497;50.720;-2.084;2022-07-23T09:50:00;4.57;;;2.00;;
64282;SDS011;50497;50.720;-2.084;2022-07-23T09:52:35;3.55;;;1.73;;
64282;SDS011;50497;50.720;-2.084;2022-07-23T09:55:16;4.40;;;1.90;;
64282;SDS011;50497;50.720;-2.084;2022-07-23T09:57:43;3.42;;;2.00;;
64282;SDS011;50497;50.720;-2.084;2022-07-23T10:00:15;4.05;;;1.90;;
64282;SDS011;50497;50.720;-2.084;2022-07-23T10:02:41;4.05;;;2.05;;
64282;SDS011;50497;50.720;-2.084;2022-07-23T10:05:09;3.72;;;1.80;;
64282;SDS011;50497;50.720;-2.084;2022-07-23T10:07:36;3.80;;;1.70;;
64282;SDS011;50497;50.720;-2.084;2022-07-23T10:10:11;3.65;;;1.73;;
64282;SDS011;50497;50.720;-2.084;2022-07-23T10:12:47;3.33;;;1.67;;
64282;SDS011;50497;50.720;-2.084;2022-07-23T10:15:40;4.03;;;1.90;;
64282;SDS011;50497;50.720;-2.084;2022-07-23T10:18:07;3.60;;;1.85;;
64282;SDS011;50497;50.720;-2.084;2022-07-23T10:20:37;4.07;;;1.90;;
64282;SDS011;50497;50.720;-2.084;2022-07-23T10:23:47;3.65;;;1.85;;
64282;SDS011;50497;50.720;-2.084;2022-07-23T10:28:45;3.83;;;1.90;;
64282;SDS011;50497;50.720;-2.084;2022-07-23T10:34:30;4.10;;;2.10;;
64282;SDS011;50497;50.720;-2.084;2022-07-23T10:37:17;4.25;;;1.92;;
64282;SDS011;50497;50.720;-2.084;2022-07-23T10:40:08;4.22;;;2.00;;
64282;SDS011;50497;50.720;-2.084;2022-07-23T10:42:36;4.43;;;2.20;;
64282;SDS011;50497;50.720;-2.084;2022-07-23T10:45:22;4.30;;;1.90;;
64282;SDS011;50497;50.720;-2.084;2022-07-23T10:51:08;3.38;;;1.88;;
64282;SDS011;50497;50.720;-2.084;2022-07-23T10:53:56;10.45;;;2.40;;
64282;SDS011;50497;50.720;-2.084;2022-07-23T10:59:21;3.40;;;2.00;;
64282;SDS011;50497;50.720;-2.084;2022-07-23T11:01:49;5.22;;;2.10;;
64282;SDS011;50497;50.720;-2.084;2022-07-23T11:04:15;4.20;;;2.20;;
64282;SDS011;50497;50.720;-2.084;2022-07-23T11:09:27;5.68;;;2.33;;
64282;SDS011;50497;50.720;-2.084;2022-07-23T11:17:37;7.20;;;2.60;;
64282;SDS011;50497;50.720;-2.084;2022-07-23T11:20:26;4.70;;;2.30;;
64282;SDS011;50497;50.720;-2.084;2022-07-23T11:22:58;13.32;;;3.15;;
64282;SDS011;50497;50.720;-2.084;2022-07-23T11:25:29;6.32;;;2.30;;
64282;SDS011;50497;50.720;-2.084;2022-07-23T11:33:15;5.93;;;2.20;;
64282;SDS011;50497;50.720;-2.084;2022-07-23T11:35:44;5.25;;;2.22;;
64282;SDS011;50497;50.720;-2.084;2022-07-23T11:38:15;4.80;;;2.08;;
64282;SDS011;50497;50.720;-2.084;2022-07-23T11:40:52;5.32;;;2.40;;
64282;SDS011;50497;50.720;-2.084;2022-07-23T11:43:23;5.97;;;2.40;;
64282;SDS011;50497;50.720;-2.084;2022-07-23T11:45:52;5.88;;;2.10;;
64282;SDS011;50497;50.720;-2.084;2022-07-23T11:48:20;5.38;;;2.15;;
64282;SDS011;50497;50.720;-2.084;2022-07-23T11:50:46;7.10;;;2.50;;
64282;SDS011;50497;50.720;-2.084;2022-07-23T11:53:13;7.90;;;2.40;;
64282;SDS011;50497;50.720;-2.084;2022-07-23T11:55:38;4.35;;;2.30;;
64282;SDS011;50497;50.720;-2.084;2022-07-23T11:58:04;8.80;;;2.53;;
64282;SDS011;50497;50.720;-2.084;2022-07-23T12:02:59;5.22;;;2.50;;
64282;SDS011;50497;50.720;-2.084;2022-07-23T12:05:32;4.38;;;2.40;;
64282;SDS011;50497;50.720;-2.084;2022-07-23T12:08:01;7.00;;;2.60;;
64282;SDS011;50497;50.720;-2.084;2022-07-23T12:10:41;8.80;;;2.63;;
64282;SDS011;50497;50.720;-2.084;2022-07-23T12:13:12;8.63;;;3.10;;
64282;SDS011;50497;50.720;-2.084;2022-07-23T12:15:44;5.65;;;2.55;;
64282;SDS011;50497;50.720;-2.084;2022-07-23T12:18:13;6.82;;;2.53;;
64282;SDS011;50497;50.720;-2.084;2022-07-23T12:21:05;5.32;;;2.40;;
64282;SDS011;50497;50.720;-2.084;2022-07-23T12:23:31;5.43;;;2.50;;
64282;SDS011;50497;50.720;-2.084;2022-07-23T12:25:59;4.43;;;2.40;;
64282;SDS011;50497;50.720;-2.084;2022-07-23T12:28:29;11.57;;;2.67;;
64282;SDS011;50497;50.720;-2.084;2022-07-23T12:30:58;10.40;;;2.60;;
64282;SDS011;50497;50.720;-2.084;2022-07-23T12:33:32;4.38;;;2.30;;
64282;SDS011;50497;50.720;-2.084;2022-07-23T12:36:10;4.45;;;2.20;;
64282;SDS011;50497;50.720;-2.084;2022-07-23T12:38:43;5.10;;;2.35;;
64282;SDS011;50497;50.720;-2.084;2022-07-23T12:41:14;7.03;;;2.70;;
64282;SDS011;50497;50.720;-2.084;2022-07-23T12:43:40;7.60;;;2.65;;
64282;SDS011;50497;50.720;-2.084;2022-07-23T12:46:15;6.32;;;2.47;;
64282;SDS011;50497;50.720;-2.084;2022-07-23T12:51:32;6.80;;;2.80;;
64282;SDS011;50497;50.720;-2.084;2022-07-23T12:56:34;5.13;;;2.75;;
64282;SDS011;50497;50.720;-2.084;2022-07-23T13:01:36;6.80;;;2.90;;
64282;SDS011;50497;50.720;-2.084;2022-07-23T13:06:30;6.85;;;2.75;;
64282;SDS011;50497;50.720;-2.084;2022-07-23T13:09:00;6.18;;;2.75;;
64282;SDS011;50497;50.720;-2.084;2022-07-23T13:11:27;9.32;;;3.92;;
64282;SDS011;50497;50.720;-2.084;2022-07-23T13:13:52;5.22;;;2.50;;
64282;SDS011;50497;50.720;-2.084;2022-07-23T13:16:18;5.22;;;2.28;;
64282;SDS011;50497;50.720;-2.084;2022-07-23T13:18:44;7.50;;;3.13;;
64282;SDS011;50497;50.720;-2.084;2022-07-23T13:21:10;7.82;;;2.90;;
64282;SDS011;50497;50.720;-2.084;2022-07-23T13:23:37;6.50;;;3.00;;
64282;SDS011;50497;50.720;-2.084;2022-07-23T13:26:03;6.55;;;2.55;;
64282;SDS011;50497;50.720;-2.084;2022-07-23T13:28:33;7.38;;;2.90;;
64282;SDS011;50497;50.720;-2.084;2022-07-23T13:31:05;6.57;;;2.85;;
64282;SDS011;50497;50.720;-2.084;2022-07-23T13:33:32;8.05;;;3.38;;
64282;SDS011;50497;50.720;-2.084;2022-07-23T13:36:00;9.18;;;3.00;;
64282;SDS011;50497;50.720;-2.084;2022-07-23T13:38:28;10.98;;;3.22;;
64282;SDS011;50497;50.720;-2.084;2022-07-23T13:40:54;6.75;;;2.70;;
64282;SDS011;50497;50.720;-2.084;2022-07-23T13:43:23;7.75;;;3.00;;
64282;SDS011;50497;50.720;-2.084;2022-07-23T13:45:52;6.55;;;3.10;;
64282;SDS011;50497;50.720;-2.084;2022-07-23T13:48:19;7.25;;;3.53;;
64282;SDS011;50497;50.720;-2.084;2022-07-23T13:50:48;8.40;;;3.67;;
64282;SDS011;50497;50.720;-2.084;2022-07-23T13:53:16;8.07;;;3.45;;
64282;SDS011;50497;50.720;-2.084;2022-07-23T13:55:48;8.10;;;3.35;;
64282;SDS011;50497;50.720;-2.084;2022-07-23T13:58:20;9.57;;;3.50;;
64282;SDS011;50497;50.720;-2.084;2022-07-23T14:00:58;7.28;;;3.22;;
64282;SDS011;50497;50.720;-2.084;2022-07-23T14:03:26;9.40;;;3.50;;
64282;SDS011;50497;50.720;-2.084;2022-07-23T14:06:01;8.18;;;3.55;;
64282;SDS011;50497;50.720;-2.084;2022-07-23T14:08:33;11.68;;;3.88;;
64282;SDS011;50497;50.720;-2.084;2022-07-23T14:11:01;9.30;;;3.80;;
64282;SDS011;50497;50.720;-2.084;2022-07-23T14:13:32;7.57;;;3.63;;
64282;SDS011;50497;50.720;-2.084;2022-07-23T14:16:05;7.90;;;3.33;;
64282;SDS011;50497;50.720;-2.084;2022-07-23T14:18:35;9.43;;;3.38;;
64282;SDS011;50497;50.720;-2.084;2022-07-23T14:21:02;10.88;;;4.10;;
64282;SDS011;50497;50.720;-2.084;2022-07-23T14:23:31;7.28;;;3.25;;
64282;SDS011;50497;50.720;-2.084;2022-07-23T14:26:02;9.40;;;3.70;;
64282;SDS011;50497;50.720;-2.084;2022-07-23T14:28:31;8.63;;;3.83;;
64282;SDS011;50497;50.720;-2.084;2022-07-23T14:30:58;9.52;;;3.80;;
64282;SDS011;50497;50.720;-2.084;2022-07-23T14:33:28;7.35;;;3.58;;
64282;SDS011;50497;50.720;-2.084;2022-07-23T14:35:55;12.55;;;4.28;;
64282;SDS011;50497;50.720;-2.084;2022-07-23T14:38:24;9.90;;;3.40;;
64282;SDS011;50497;50.720;-2.084;2022-07-23T14:40:55;10.73;;;3.83;;
64282;SDS011;50497;50.720;-2.084;2022-07-23T14:43:21;9.15;;;3.70;;
64282;SDS011;50497;50.720;-2.084;2022-07-23T14:48:13;10.98;;;3.88;;
64282;SDS011;50497;50.720;-2.084;2022-07-23T14:50:45;7.05;;;3.40;;
64282;SDS011;50497;50.720;-2.084;2022-07-23T14:55:37;8.13;;;2.90;;
64282;SDS011;50497;50.720;-2.084;2022-07-23T15:00:28;9.48;;;3.40;;
64282;SDS011;50497;50.720;-2.084;2022-07-23T15:05:19;8.50;;;3.65;;
64282;SDS011;50497;50.720;-2.084;2022-07-23T15:07:49;10.63;;;3.85;;
64282;SDS011;50497;50.720;-2.084;2022-07-23T15:10:17;7.88;;;3.58;;
64282;SDS011;50497;50.720;-2.084;2022-07-23T15:12:43;8.60;;;3.47;;
64282;SDS011;50497;50.720;-2.084;2022-07-23T15:15:08;6.57;;;3.60;;
64282;SDS011;50497;50.720;-2.084;2022-07-23T15:20:00;7.03;;;3.22;;
64282;SDS011;50497;50.720;-2.084;2022-07-23T15:22:26;10.32;;;3.60;;
64282;SDS011;50497;50.720;-2.084;2022-07-23T15:24:53;7.30;;;3.63;;
64282;SDS011;50497;50.720;-2.084;2022-07-23T15:27:19;8.27;;;3.45;;
64282;SDS011;50497;50.720;-2.084;2022-07-23T15:32:11;7.55;;;3.28;;
64282;SDS011;50497;50.720;-2.084;2022-07-23T15:34:37;8.23;;;3.40;;
64282;SDS011;50497;50.720;-2.084;2022-07-23T15:37:04;7.15;;;3.50;;
64282;SDS011;50497;50.720;-2.084;2022-07-23T15:39:31;7.60;;;3.30;;
64282;SDS011;50497;50.720;-2.084;2022-07-23T15:42:00;8.38;;;3.33;;
64282;SDS011;50497;50.720;-2.084;2022-07-23T15:44:27;8.98;;;3.80;;
64282;SDS011;50497;50.720;-2.084;2022-07-23T15:46:53;7.43;;;3.30;;
64282;SDS011;50497;50.720;-2.084;2022-07-23T15:51:44;7.50;;;3.20;;
64282;SDS011;50497;50.720;-2.084;2022-07-23T15:54:10;7.28;;;3.10;;
64282;SDS011;50497;50.720;-2.084;2022-07-23T15:56:36;7.95;;;3.55;;
64282;SDS011;50497;50.720;-2.084;2022-07-23T15:59:01;6.28;;;3.30;;
64282;SDS011;50497;50.720;-2.084;2022-07-23T16:01:29;9.88;;;3.38;;